ウランバートル の空港の天気 - METARとTAF

チンギスハーン国際空港 ( ZMUB / ULN ) - モンゴル ウランバートル
飛行場実況気象(Metar)
観測時間02/01 18:00 ULAT (02/01 10:00 UTC)
風向・風速不定 2m/s
視程10km以上
天気現象
なし
気温-20℃
湿度70%
気圧1023hPa
METARZMUB 011000Z VRB02MPS CAVOK M20/M24 Q1023 NOSIG RMK QFE659.3 66
過去の天気等 Google飛行場航空写真 Wunderground天気予報

過去48時間のMETAR

飛行場予報(TAF)
発表時間: 2/01 12:42 ULAT (2/01 04:42 UTC)
予報対象時間: 1日14時 ULAT ~ 2日20時 ULAT
風向・風速不定 2m/s
視程6000m
全天の4割程度の雲 雲底高度 3050m
TAF ZMUB 010442Z 0106/0212 VRB02MPS 6000 SCT100 TXM11/0107Z TNM30/0123Z